createdAt,value
2022-08-14T00:01:54.765Z,3.70
2022-08-14T00:04:35.187Z,3.20
2022-08-14T00:07:09.783Z,3.15
2022-08-14T00:09:55.825Z,3.42
2022-08-14T00:12:33.244Z,3.17
2022-08-14T00:15:10.203Z,3.28
2022-08-14T00:17:38.024Z,3.45
2022-08-14T00:20:14.090Z,3.30
2022-08-14T00:22:56.039Z,3.10
2022-08-14T00:25:41.480Z,3.10
2022-08-14T00:28:15.134Z,3.55
2022-08-14T00:30:43.796Z,3.40
2022-08-14T00:33:15.952Z,3.08
2022-08-14T00:36:35.083Z,3.80
2022-08-14T00:38:31.907Z,3.05
2022-08-14T00:40:59.605Z,3.67
2022-08-14T00:43:31.507Z,3.38
2022-08-14T00:46:02.743Z,3.90
2022-08-14T00:48:34.378Z,3.63
2022-08-14T00:51:09.168Z,3.35
2022-08-14T00:53:37.338Z,3.30
2022-08-14T00:56:07.066Z,3.80
2022-08-14T00:58:45.204Z,3.42
2022-08-14T01:01:15.260Z,3.67
2022-08-14T01:03:44.757Z,3.13
2022-08-14T01:06:16.853Z,3.38
2022-08-14T01:08:52.301Z,3.33
2022-08-14T01:11:25.274Z,3.28
2022-08-14T01:14:18.345Z,3.67
2022-08-14T01:16:48.023Z,3.40
2022-08-14T01:19:39.232Z,3.50
2022-08-14T01:22:08.248Z,3.45
2022-08-14T01:24:40.064Z,3.65
2022-08-14T01:27:07.333Z,3.30
2022-08-14T01:29:59.182Z,3.08
2022-08-14T01:32:25.016Z,3.70
2022-08-14T01:35:17.850Z,3.58
2022-08-14T01:37:54.755Z,3.60
2022-08-14T01:40:25.749Z,3.60
2022-08-14T01:43:02.789Z,3.50
2022-08-14T01:45:29.394Z,3.83
2022-08-14T01:48:07.579Z,3.92
2022-08-14T01:50:41.953Z,3.90
2022-08-14T01:53:09.436Z,3.60
2022-08-14T01:55:36.851Z,3.25
2022-08-14T01:58:19.944Z,3.72
2022-08-14T02:00:55.018Z,3.47
2022-08-14T02:03:29.918Z,3.45
2022-08-14T02:05:58.402Z,3.40
2022-08-14T02:08:34.520Z,3.40
2022-08-14T02:11:17.119Z,3.42
2022-08-14T02:13:50.498Z,3.47
2022-08-14T02:16:22.519Z,3.70
2022-08-14T02:18:50.318Z,3.75
2022-08-14T02:21:19.358Z,3.65
2022-08-14T02:23:53.651Z,3.10
2022-08-14T02:26:29.723Z,3.38
2022-08-14T02:29:00.645Z,3.63
2022-08-14T02:31:42.238Z,3.78
2022-08-14T02:34:22.090Z,3.90
2022-08-14T02:37:03.831Z,3.63
2022-08-14T02:39:39.071Z,3.50
2022-08-14T02:42:13.221Z,4.05
2022-08-14T02:44:49.020Z,3.65
2022-08-14T02:47:19.182Z,4.05
2022-08-14T02:49:54.683Z,4.00
2022-08-14T02:52:56.304Z,3.87
2022-08-14T02:55:09.247Z,3.47
2022-08-14T02:57:40.519Z,3.58
2022-08-14T03:00:09.991Z,3.53
2022-08-14T03:02:56.299Z,3.80
2022-08-14T03:05:23.795Z,3.80
2022-08-14T03:07:51.821Z,4.00
2022-08-14T03:10:27.506Z,4.18
2022-08-14T03:12:59.503Z,3.88
2022-08-14T03:15:27.466Z,3.70
2022-08-14T03:17:58.274Z,3.95
2022-08-14T03:20:28.496Z,3.80
2022-08-14T03:23:00.581Z,3.72
2022-08-14T03:25:37.676Z,3.83
2022-08-14T03:28:14.866Z,3.60
2022-08-14T03:31:00.272Z,4.35
2022-08-14T03:33:37.997Z,3.90
2022-08-14T03:37:38.762Z,3.67
2022-08-14T03:39:15.649Z,4.13
2022-08-14T03:41:44.544Z,3.67
2022-08-14T03:45:19.716Z,4.15
2022-08-14T03:46:57.909Z,3.75
2022-08-14T03:49:29.347Z,3.70
2022-08-14T03:51:58.373Z,3.78
2022-08-14T03:54:28.127Z,3.63
2022-08-14T03:56:54.833Z,4.38
2022-08-14T03:59:21.953Z,3.80
2022-08-14T04:01:57.932Z,4.22
2022-08-14T04:04:30.710Z,4.05
2022-08-14T04:06:59.312Z,4.20
2022-08-14T04:09:27.159Z,3.55
2022-08-14T04:11:56.168Z,4.15
2022-08-14T04:14:24.478Z,3.85
2022-08-14T04:16:50.925Z,4.10
2022-08-14T04:19:19.820Z,4.00
2022-08-14T04:22:02.919Z,3.83
2022-08-14T04:24:38.159Z,4.15
2022-08-14T04:29:44.972Z,3.80
2022-08-14T04:32:58.864Z,3.72
2022-08-14T04:35:07.583Z,3.88
2022-08-14T04:37:55.747Z,3.90
2022-08-14T04:40:41.711Z,3.83
2022-08-14T04:43:38.576Z,4.15
2022-08-14T04:46:07.362Z,3.60
2022-08-14T04:48:43.477Z,4.50
2022-08-14T04:51:16.000Z,4.03
2022-08-14T04:53:45.575Z,4.05
2022-08-14T04:56:30.654Z,3.70
2022-08-14T04:59:09.755Z,3.92
2022-08-14T05:01:41.503Z,4.40
2022-08-14T05:04:14.732Z,3.80
2022-08-14T05:06:42.603Z,4.00
2022-08-14T05:09:11.644Z,3.60
2022-08-14T05:11:40.714Z,3.90
2022-08-14T05:14:29.737Z,3.97
2022-08-14T05:16:54.051Z,3.90
2022-08-14T05:19:29.497Z,4.20
2022-08-14T05:22:16.994Z,3.65
2022-08-14T05:24:49.522Z,3.58
2022-08-14T05:27:22.730Z,4.25
2022-08-14T05:29:55.353Z,3.90
2022-08-14T05:32:26.856Z,3.90
2022-08-14T05:34:57.376Z,4.22
2022-08-14T05:37:24.328Z,3.70
2022-08-14T05:39:53.413Z,4.03
2022-08-14T05:42:22.237Z,3.80
2022-08-14T05:44:55.615Z,3.97
2022-08-14T05:47:23.059Z,4.50
2022-08-14T05:49:49.839Z,4.25
2022-08-14T05:52:18.367Z,3.95
2022-08-14T05:54:44.946Z,4.28
2022-08-14T05:57:11.339Z,4.50
2022-08-14T05:59:39.665Z,4.22
2022-08-14T06:02:10.941Z,3.83
2022-08-14T06:04:39.123Z,4.07
2022-08-14T06:07:06.941Z,3.55
2022-08-14T06:09:35.877Z,3.53
2022-08-14T06:12:08.808Z,3.53
2022-08-14T06:14:36.709Z,3.50
2022-08-14T06:17:04.922Z,3.10
2022-08-14T06:19:31.560Z,3.05
2022-08-14T06:21:59.020Z,3.40
2022-08-14T06:24:27.377Z,3.40
2022-08-14T06:27:03.870Z,3.38
2022-08-14T06:29:34.638Z,3.53
2022-08-14T06:32:38.854Z,3.78
2022-08-14T06:35:03.967Z,3.45
2022-08-14T06:37:43.159Z,3.85
2022-08-14T06:40:25.729Z,4.05
2022-08-14T06:42:56.626Z,3.72
2022-08-14T06:45:27.022Z,4.20
2022-08-14T06:47:54.151Z,4.28
2022-08-14T06:50:27.954Z,3.72
2022-08-14T06:52:56.242Z,4.10
2022-08-14T06:55:27.858Z,4.20
2022-08-14T06:57:56.488Z,4.13
2022-08-14T07:00:30.894Z,4.00
2022-08-14T07:03:17.655Z,3.63
2022-08-14T07:05:58.052Z,4.28
2022-08-14T07:08:31.248Z,4.13
2022-08-14T07:11:01.342Z,4.35
2022-08-14T07:13:30.444Z,3.90
2022-08-14T07:15:58.894Z,3.67
2022-08-14T07:18:30.988Z,4.38
2022-08-14T07:20:59.306Z,4.05
2022-08-14T07:23:26.565Z,4.00
2022-08-14T07:25:58.195Z,3.90
2022-08-14T07:28:35.852Z,3.90
2022-08-14T07:31:12.662Z,3.90
2022-08-14T07:33:43.604Z,3.83
2022-08-14T07:36:27.160Z,3.55
2022-08-14T07:39:00.711Z,3.28
2022-08-14T07:41:33.446Z,3.20
2022-08-14T07:46:47.634Z,2.95
2022-08-14T07:49:17.564Z,2.53
2022-08-14T07:51:44.479Z,2.85
2022-08-14T07:54:12.192Z,2.83
2022-08-14T07:56:44.006Z,3.20
2022-08-14T07:59:16.512Z,2.50
2022-08-14T08:01:51.189Z,3.03
2022-08-14T08:04:27.264Z,2.83
2022-08-14T08:06:55.259Z,3.38
2022-08-14T08:09:24.793Z,2.72
2022-08-14T08:12:00.946Z,2.63
2022-08-14T08:14:56.555Z,3.05
2022-08-14T08:17:23.518Z,3.00
2022-08-14T08:19:51.857Z,2.90
2022-08-14T08:22:21.069Z,3.00
2022-08-14T08:24:47.477Z,3.45
2022-08-14T08:27:18.374Z,3.10
2022-08-14T08:29:51.060Z,3.38
2022-08-14T08:32:18.781Z,3.20
2022-08-14T08:34:48.319Z,3.20
2022-08-14T08:37:15.634Z,2.95
2022-08-14T08:40:03.160Z,3.08
2022-08-14T08:42:41.439Z,2.78
2022-08-14T08:45:15.123Z,3.38
2022-08-14T08:47:45.259Z,2.95
2022-08-14T08:53:00.283Z,2.63
2022-08-14T08:55:39.059Z,2.97
2022-08-14T08:58:16.595Z,2.78
2022-08-14T09:00:55.400Z,3.10
2022-08-14T09:03:25.549Z,3.10
2022-08-14T09:06:56.905Z,2.83
2022-08-14T09:08:52.623Z,2.53
2022-08-14T09:11:21.433Z,2.60
2022-08-14T09:13:52.695Z,2.53
2022-08-14T09:16:24.869Z,2.75
2022-08-14T09:18:53.508Z,2.72
2022-08-14T09:21:21.348Z,2.88
2022-08-14T09:24:30.184Z,2.92
2022-08-14T09:26:42.109Z,2.90
2022-08-14T09:29:11.370Z,2.92
2022-08-14T09:31:53.158Z,2.88
2022-08-14T09:34:47.399Z,2.83
2022-08-14T09:37:55.503Z,2.78
2022-08-14T09:41:21.031Z,3.08
2022-08-14T09:43:57.402Z,2.95
2022-08-14T09:46:27.623Z,3.35
2022-08-14T09:49:02.488Z,2.97
2022-08-14T09:51:32.991Z,3.30
2022-08-14T09:54:22.783Z,3.10
2022-08-14T09:56:56.922Z,3.00
2022-08-14T09:59:27.961Z,3.50
2022-08-14T10:01:57.331Z,3.28
2022-08-14T10:04:34.308Z,3.25
2022-08-14T10:07:05.108Z,3.50
2022-08-14T10:09:33.203Z,3.40
2022-08-14T10:12:00.100Z,3.13
2022-08-14T10:14:35.841Z,3.40
2022-08-14T10:17:06.383Z,2.97
2022-08-14T10:19:35.602Z,2.53
2022-08-14T10:23:12.404Z,2.97
2022-08-14T10:25:10.597Z,3.00
2022-08-14T10:27:37.040Z,2.55
2022-08-14T10:30:12.572Z,2.88
2022-08-14T10:32:51.657Z,2.80
2022-08-14T10:35:23.234Z,2.63
2022-08-14T10:38:00.612Z,2.90
2022-08-14T10:40:37.861Z,2.70
2022-08-14T10:43:17.568Z,2.50
2022-08-14T10:46:03.926Z,2.67
2022-08-14T10:49:02.716Z,2.40
2022-08-14T10:51:39.844Z,2.45
2022-08-14T10:54:35.570Z,2.70
2022-08-14T10:56:57.908Z,2.97
2022-08-14T10:59:34.913Z,2.67
2022-08-14T11:02:02.388Z,2.72
2022-08-14T11:04:30.637Z,2.47
2022-08-14T11:06:57.555Z,2.67
2022-08-14T11:09:26.620Z,2.80
2022-08-14T11:12:34.926Z,2.67
2022-08-14T11:15:02.691Z,2.53
2022-08-14T11:17:32.690Z,2.50
2022-08-14T11:20:01.816Z,2.60
2022-08-14T11:22:52.742Z,2.80
2022-08-14T11:25:20.464Z,2.58
2022-08-14T11:27:49.836Z,2.70
2022-08-14T11:30:51.808Z,2.60
2022-08-14T11:33:09.129Z,2.20
2022-08-14T11:35:47.276Z,2.45
2022-08-14T11:38:16.393Z,2.63
2022-08-14T11:40:46.674Z,2.40
2022-08-14T11:43:13.855Z,2.78
2022-08-14T11:45:48.408Z,2.40
2022-08-14T11:49:01.591Z,2.58
2022-08-14T11:51:23.920Z,2.40
2022-08-14T11:54:02.173Z,2.45
2022-08-14T11:56:41.199Z,2.70
2022-08-14T11:59:15.392Z,2.72
2022-08-14T12:01:41.966Z,2.50
2022-08-14T12:04:31.701Z,2.42
2022-08-14T12:07:01.453Z,2.53
2022-08-14T12:09:38.509Z,2.53
2022-08-14T12:12:35.500Z,2.40
2022-08-14T12:15:04.760Z,2.20
2022-08-14T12:17:47.349Z,2.67
2022-08-14T12:20:16.370Z,2.45
2022-08-14T12:22:57.296Z,2.28
2022-08-14T12:25:24.714Z,2.30
2022-08-14T12:27:59.067Z,2.38
2022-08-14T12:30:43.174Z,2.20
2022-08-14T12:33:23.963Z,2.10
2022-08-14T12:35:51.243Z,2.40
2022-08-14T12:38:35.975Z,2.43
2022-08-14T12:41:09.549Z,2.63
2022-08-14T12:43:46.731Z,2.47
2022-08-14T12:46:27.529Z,2.38
2022-08-14T12:48:59.780Z,2.25
2022-08-14T12:51:28.351Z,2.63
2022-08-14T12:53:59.497Z,2.13
2022-08-14T12:56:34.060Z,2.47
2022-08-14T12:59:02.671Z,2.47
2022-08-14T13:01:31.714Z,2.10
2022-08-14T13:04:18.775Z,2.22
2022-08-14T13:06:50.682Z,2.33
2022-08-14T13:09:19.319Z,2.25
2022-08-14T13:11:49.391Z,2.30
2022-08-14T13:14:29.992Z,2.25
2022-08-14T13:16:58.557Z,2.45
2022-08-14T13:19:26.735Z,2.20
2022-08-14T13:21:58.742Z,2.20
2022-08-14T13:24:34.371Z,2.00
2022-08-14T13:27:04.626Z,1.92
2022-08-14T13:29:37.967Z,1.85
2022-08-14T13:32:09.631Z,1.88
2022-08-14T13:34:38.150Z,2.05
2022-08-14T13:37:07.096Z,1.80
2022-08-14T13:39:36.232Z,1.70
2022-08-14T13:42:13.455Z,2.20
2022-08-14T13:44:43.260Z,1.88
2022-08-14T13:47:14.482Z,1.95
2022-08-14T13:49:57.880Z,2.10
2022-08-14T13:52:52.720Z,2.25
2022-08-14T13:55:13.440Z,1.90
2022-08-14T13:57:49.418Z,2.05
2022-08-14T14:00:35.399Z,1.80
2022-08-14T14:03:06.463Z,1.95
2022-08-14T14:05:53.054Z,2.13
2022-08-14T14:08:46.382Z,1.80
2022-08-14T14:11:09.812Z,2.00
2022-08-14T14:13:38.084Z,2.03
2022-08-14T14:16:11.680Z,2.13
2022-08-14T14:18:43.769Z,1.88
2022-08-14T14:21:13.851Z,1.90
2022-08-14T14:23:44.203Z,1.77
2022-08-14T14:26:20.009Z,2.00
2022-08-14T14:28:54.767Z,2.08
2022-08-14T14:31:29.966Z,1.70
2022-08-14T14:34:07.428Z,2.03
2022-08-14T14:36:50.107Z,2.00
2022-08-14T14:39:23.224Z,2.27
2022-08-14T14:41:56.147Z,2.22
2022-08-14T14:44:27.011Z,2.00
2022-08-14T14:46:53.744Z,2.10
2022-08-14T14:49:22.136Z,2.00
2022-08-14T14:51:58.865Z,2.17
2022-08-14T14:54:31.074Z,2.10
2022-08-14T14:57:04.619Z,2.17
2022-08-14T14:59:37.213Z,1.92
2022-08-14T15:02:09.331Z,1.90
2022-08-14T15:04:38.418Z,1.90
2022-08-14T15:07:06.743Z,2.05
2022-08-14T15:09:35.944Z,2.00
2022-08-14T15:12:16.188Z,1.75
2022-08-14T15:14:55.357Z,2.10
2022-08-14T15:17:24.804Z,1.95
2022-08-14T15:19:57.083Z,1.88
2022-08-14T15:22:25.356Z,2.08
2022-08-14T15:24:51.980Z,1.92
2022-08-14T15:27:21.483Z,2.17
2022-08-14T15:29:53.703Z,1.95
2022-08-14T15:32:23.206Z,2.00
2022-08-14T15:34:52.614Z,1.98
2022-08-14T15:37:22.058Z,2.15
2022-08-14T15:39:49.904Z,1.98
2022-08-14T15:42:21.037Z,1.92
2022-08-14T15:44:57.451Z,2.03
2022-08-14T15:47:28.371Z,2.08
2022-08-14T15:50:00.689Z,1.90
2022-08-14T15:52:37.272Z,2.00
2022-08-14T15:55:07.676Z,1.83
2022-08-14T15:57:35.014Z,2.30
2022-08-14T16:00:21.245Z,2.30
2022-08-14T16:03:11.517Z,1.95
2022-08-14T16:05:38.911Z,2.00
2022-08-14T16:08:24.221Z,2.10
2022-08-14T16:10:55.011Z,1.80
2022-08-14T16:13:41.070Z,2.08
2022-08-14T16:16:47.323Z,1.90
2022-08-14T16:18:58.895Z,1.75
2022-08-14T16:21:31.774Z,1.73
2022-08-14T16:24:26.867Z,2.03
2022-08-14T16:26:54.834Z,1.90
2022-08-14T16:29:29.006Z,2.10
2022-08-14T16:31:58.679Z,1.90
2022-08-14T16:34:44.156Z,2.03
2022-08-14T16:37:16.424Z,2.10
2022-08-14T16:39:45.052Z,2.13
2022-08-14T16:43:03.197Z,2.10
2022-08-14T16:45:01.193Z,2.10
2022-08-14T16:47:34.984Z,2.10
2022-08-14T16:50:08.449Z,2.10
2022-08-14T16:52:54.644Z,2.00
2022-08-14T16:55:30.245Z,1.90
2022-08-14T16:57:58.811Z,2.40
2022-08-14T17:00:45.203Z,2.10
2022-08-14T17:03:12.991Z,2.30
2022-08-14T17:05:43.221Z,1.92
2022-08-14T17:08:32.079Z,2.03
2022-08-14T17:10:59.900Z,2.30
2022-08-14T17:13:59.255Z,2.30
2022-08-14T17:16:24.769Z,1.85
2022-08-14T17:19:00.825Z,1.90
2022-08-14T17:21:31.388Z,2.00
2022-08-14T17:24:57.128Z,2.40
2022-08-14T17:27:04.150Z,2.30
2022-08-14T17:29:34.364Z,2.17
2022-08-14T17:32:21.929Z,2.50
2022-08-14T17:34:55.444Z,2.40
2022-08-14T17:37:44.784Z,2.35
2022-08-14T17:40:23.309Z,2.20
2022-08-14T17:42:55.682Z,2.47
2022-08-14T17:45:38.945Z,2.22
2022-08-14T17:49:15.912Z,2.28
2022-08-14T17:51:24.220Z,2.60
2022-08-14T17:54:02.380Z,2.78
2022-08-14T17:56:31.006Z,2.40
2022-08-14T17:59:04.041Z,2.20
2022-08-14T18:01:36.137Z,2.50
2022-08-14T18:04:24.817Z,2.50
2022-08-14T18:06:58.531Z,2.50
2022-08-14T18:09:56.491Z,2.45
2022-08-14T18:12:36.338Z,2.70
2022-08-14T18:15:16.829Z,2.70
2022-08-14T18:17:52.833Z,2.78
2022-08-14T18:21:40.624Z,2.92
2022-08-14T18:23:08.482Z,2.40
2022-08-14T18:25:51.528Z,2.90
2022-08-14T18:28:51.761Z,2.40
2022-08-14T18:31:20.422Z,2.33
2022-08-14T18:33:55.823Z,2.53
2022-08-14T18:36:47.916Z,2.30
2022-08-14T18:42:23.656Z,2.40
2022-08-14T18:44:50.716Z,2.50
2022-08-14T18:47:19.672Z,2.88
2022-08-14T18:50:01.006Z,2.50
2022-08-14T18:52:34.366Z,2.75
2022-08-14T18:55:20.781Z,2.45
2022-08-14T18:58:26.658Z,2.55
2022-08-14T19:00:58.895Z,2.75
2022-08-14T19:03:34.298Z,2.42
2022-08-14T19:06:10.122Z,2.78
2022-08-14T19:08:37.362Z,2.57
2022-08-14T19:11:06.606Z,2.45
2022-08-14T19:13:48.925Z,2.80
2022-08-14T19:16:26.101Z,2.80
2022-08-14T19:19:00.885Z,2.80
2022-08-14T19:21:38.307Z,2.80
2022-08-14T19:24:29.827Z,3.10
2022-08-14T19:27:13.075Z,2.88
2022-08-14T19:29:40.130Z,3.22
2022-08-14T19:32:32.626Z,3.28
2022-08-14T19:35:50.004Z,2.90
2022-08-14T19:38:49.262Z,2.72
2022-08-14T19:41:32.144Z,3.20
2022-08-14T19:44:19.157Z,2.95
2022-08-14T19:47:01.019Z,3.13
2022-08-14T19:50:24.284Z,4.22
2022-08-14T19:52:31.621Z,2.67
2022-08-14T19:55:18.090Z,3.35
2022-08-14T19:57:52.461Z,2.58
2022-08-14T20:00:29.220Z,3.10
2022-08-14T20:03:09.857Z,3.40
2022-08-14T20:05:42.967Z,3.42
2022-08-14T20:09:05.837Z,2.90
2022-08-14T20:11:20.923Z,2.95
2022-08-14T20:13:45.691Z,2.60
2022-08-14T20:16:20.925Z,3.17
2022-08-14T20:19:08.244Z,2.85
2022-08-14T20:21:37.540Z,2.85
2022-08-14T20:24:41.162Z,3.25
2022-08-14T20:27:33.262Z,3.30
2022-08-14T20:30:34.701Z,3.00
2022-08-14T20:33:07.838Z,2.70
2022-08-14T20:35:42.927Z,2.92
2022-08-14T20:38:31.684Z,2.70
2022-08-14T20:41:09.429Z,2.78
2022-08-14T20:43:57.804Z,2.85
2022-08-14T20:46:38.950Z,2.90
2022-08-14T20:49:10.643Z,2.80
2022-08-14T20:51:54.597Z,2.67
2022-08-14T20:54:33.902Z,3.08
2022-08-14T20:57:10.262Z,2.67
2022-08-14T20:59:43.676Z,2.88
2022-08-14T21:02:30.480Z,3.25
2022-08-14T21:05:16.772Z,3.13
2022-08-14T21:07:50.771Z,3.03
2022-08-14T21:10:33.303Z,3.35
2022-08-14T21:13:25.604Z,2.80
2022-08-14T21:15:57.799Z,3.05
2022-08-14T21:18:28.915Z,3.00
2022-08-14T21:20:57.545Z,3.00
2022-08-14T21:23:24.096Z,3.30
2022-08-14T21:25:50.558Z,2.95
2022-08-14T21:28:29.375Z,2.90
2022-08-14T21:30:58.047Z,2.63
2022-08-14T21:33:25.623Z,2.78
2022-08-14T21:35:55.746Z,2.70
2022-08-14T21:38:34.310Z,2.85
2022-08-14T21:41:41.275Z,3.30
2022-08-14T21:44:17.924Z,3.20
2022-08-14T21:46:54.163Z,2.90
2022-08-14T21:49:38.314Z,3.20
2022-08-14T21:54:54.858Z,2.72
2022-08-14T21:57:55.773Z,3.08
2022-08-14T22:00:30.492Z,2.90
2022-08-14T22:03:05.528Z,3.10
2022-08-14T22:05:32.158Z,3.00
2022-08-14T22:07:58.676Z,2.92
2022-08-14T22:10:25.747Z,3.20
2022-08-14T22:13:01.426Z,3.20
2022-08-14T22:15:29.733Z,2.90
2022-08-14T22:17:56.787Z,3.40
2022-08-14T22:20:28.775Z,3.10
2022-08-14T22:22:56.634Z,3.08
2022-08-14T22:25:33.866Z,3.13
2022-08-14T22:28:12.810Z,3.33
2022-08-14T22:30:41.701Z,2.90
2022-08-14T22:33:10.006Z,2.92
2022-08-14T22:35:40.522Z,3.40
2022-08-14T22:38:36.469Z,3.28
2022-08-14T22:41:25.562Z,3.38
2022-08-14T22:43:43.837Z,3.22
2022-08-14T22:46:18.378Z,3.80
2022-08-14T22:48:48.167Z,3.42
2022-08-14T22:51:17.698Z,3.30
2022-08-14T22:53:48.470Z,3.30
2022-08-14T22:56:20.398Z,3.30
2022-08-14T22:58:49.914Z,3.25
2022-08-14T23:01:57.202Z,3.47
2022-08-14T23:04:35.608Z,3.20
2022-08-14T23:07:22.022Z,3.63
2022-08-14T23:09:56.593Z,3.47
2022-08-14T23:14:55.526Z,3.30
2022-08-14T23:17:22.571Z,3.70
2022-08-14T23:19:49.003Z,3.72
2022-08-14T23:22:26.365Z,3.40
2022-08-14T23:24:53.334Z,3.60
2022-08-14T23:27:28.346Z,3.67
2022-08-14T23:29:58.566Z,3.55
2022-08-14T23:32:27.556Z,3.70
2022-08-14T23:34:56.988Z,4.10
2022-08-14T23:37:27.093Z,3.65
2022-08-14T23:39:54.322Z,3.78
2022-08-14T23:42:22.275Z,4.00
2022-08-14T23:45:07.887Z,3.75
2022-08-14T23:47:51.953Z,4.50
2022-08-14T23:50:34.667Z,4.00
2022-08-14T23:53:28.228Z,3.88
2022-08-14T23:56:13.891Z,3.90
